OOCL Hamburg — VRZK9 — position and weather

sailwx.info

Track history (hours):
 
Tides and Currents Weather Stations Pressure Air Temp Water Temp Dewpoint Dewpoint Depression Visibility Wind Speed Wind Dir Waves Ship Positions

OOCL Hamburg

Last reported at 2017-Jan-12 22:07 UTC. Time now 2017-Jan-16 21:55 UTC.
Position N 22°25' E 119°40'.

Length 323 m; beam 42.8 m; draft 14.5 m.

Type: Cargo ship. MMSI: 477702000.

Date/timePositionNaut miles runAvg speedWind from/ knotsBaromVisibWave heightAir tempDewpointWater temp
2017-Jan-12 22:07N 22°25' E 119°40'713.2
2017-Jan-12 21:33N 22°27' E 119°48'1313.2
2017-Jan-12 20:33N 22°30' E 120°02'1313.3
2017-Jan-12 19:33N 22°33' E 120°16'3 2.8
2017-Jan-12 18:33N 22°34' E 120°19'0 0.0
2017-Jan-12 17:30N 22°34' E 120°19'0 0.0
2017-Jan-12 16:30N 22°34' E 120°19'0 0.0
2017-Jan-12 15:30N 22°34' E 120°19'0 0.0
2017-Jan-12 14:24N 22°34' E 120°19'0 0.0
2017-Jan-12 13:30N 22°34' E 120°19'0 0.0
2017-Jan-12 12:30N 22°34' E 120°19'0 0.0
2017-Jan-12 11:30N 22°34' E 120°19'0 0.0
2017-Jan-12 08:24N 22°34' E 120°19'0 0.0
2017-Jan-12 07:18N 22°34' E 120°19'0 0.1
2017-Jan-12 06:30N 22°34' E 120°19'0 0.0
2017-Jan-12 05:24N 22°34' E 120°19'0 0.0
2017-Jan-12 04:24N 22°34' E 120°19'0 0.0
2017-Jan-12 03:30N 22°34' E 120°19'0 0.0
2017-Jan-12 01:30N 22°34' E 120°19'0 0.0
2017-Jan-12 00:30N 22°34' E 120°19'0 0.5
2017-Jan-11 23:33N 22°34' E 120°19'8 8.0
2017-Jan-11 22:33N 22°32' E 120°11'8 8.3
2017-Jan-11 21:33N 22°29' E 120°02'1211.6
2017-Jan-11 20:33N 22°26' E 119°50'  
2017-Jan-05 23:33N 01°12' E 103°55'5 4.9
2017-Jan-05 22:33N 01°15' E 103°51'1 0.7
2017-Jan-05 21:31N 01°16' E 103°50'0 0.0
2017-Jan-05 20:32N 01°16' E 103°50'0 0.0
2017-Jan-05 19:17N 01°16' E 103°50'0 0.0
2017-Jan-05 18:29N 01°16' E 103°50'0 0.0
2017-Jan-05 17:29N 01°16' E 103°50'0 0.0
2017-Jan-05 16:29N 01°16' E 103°50'0 0.0
2017-Jan-05 15:29N 01°16' E 103°50'0 0.0
2017-Jan-05 14:29N 01°16' E 103°50'0 0.0
2017-Jan-05 13:29N 01°16' E 103°50'0 0.0
2017-Jan-05 12:29N 01°16' E 103°50'0 0.0
2017-Jan-05 11:32N 01°16' E 103°50'0 0.0
2017-Jan-05 10:29N 01°16' E 103°50'0 0.0
2017-Jan-05 09:29N 01°16' E 103°50'0 0.0
2017-Jan-05 08:28N 01°16' E 103°50'0 0.0
2017-Jan-05 07:28N 01°16' E 103°50'0 0.0
2017-Jan-05 06:25N 01°16' E 103°50'0 0.0
2017-Jan-05 05:28N 01°16' E 103°50'0 0.0
2017-Jan-05 04:28N 01°16' E 103°50'0 0.4
2017-Jan-05 03:33N 01°16' E 103°50'1 1.1
2017-Jan-05 02:33N 01°15' E 103°51'4 4.1
2017-Jan-05 01:27N 01°11' E 103°50'6410.5
2017-Jan-04 19:20N 01°36' E 102°51'2614.8
2017-Jan-04 17:33N 01°47' E 102°27'3014.9
2017-Jan-04 15:33N 02°04' E 102°03'1515.4
2017-Jan-04 14:33N 02°14' E 101°51'  
Track history (hours):
 
Tides and Currents Weather Stations Pressure Air Temp Water Temp Dewpoint Dewpoint Depression Visibility Wind Speed Wind Dir Waves Ship Positions

OOCL Hamburg

Last reported at 2017-Jan-12 22:07 UTC. Time now 2017-Jan-16 21:55 UTC.
Position N 22°25' E 119°40'.

Length 323 m; beam 42.8 m; draft 14.5 m.

Type: Cargo ship. MMSI: 477702000.

Date/timePositionNaut miles runAvg speedWind from/ knotsBaromVisibWave heightAir tempDewpointWater temp
2017-Jan-12 22:07N 22°25' E 119°40'713.2
2017-Jan-12 21:33N 22°27' E 119°48'1313.2
2017-Jan-12 20:33N 22°30' E 120°02'1313.3
2017-Jan-12 19:33N 22°33' E 120°16'3 2.8
2017-Jan-12 18:33N 22°34' E 120°19'0 0.0
2017-Jan-12 17:30N 22°34' E 120°19'0 0.0
2017-Jan-12 16:30N 22°34' E 120°19'0 0.0
2017-Jan-12 15:30N 22°34' E 120°19'0 0.0
2017-Jan-12 14:24N 22°34' E 120°19'0 0.0
2017-Jan-12 13:30N 22°34' E 120°19'0 0.0
2017-Jan-12 12:30N 22°34' E 120°19'0 0.0
2017-Jan-12 11:30N 22°34' E 120°19'0 0.0
2017-Jan-12 08:24N 22°34' E 120°19'0 0.0
2017-Jan-12 07:18N 22°34' E 120°19'0 0.1
2017-Jan-12 06:30N 22°34' E 120°19'0 0.0
2017-Jan-12 05:24N 22°34' E 120°19'0 0.0
2017-Jan-12 04:24N 22°34' E 120°19'0 0.0
2017-Jan-12 03:30N 22°34' E 120°19'0 0.0
2017-Jan-12 01:30N 22°34' E 120°19'0 0.0
2017-Jan-12 00:30N 22°34' E 120°19'0 0.5
2017-Jan-11 23:33N 22°34' E 120°19'8 8.0
2017-Jan-11 22:33N 22°32' E 120°11'8 8.3
2017-Jan-11 21:33N 22°29' E 120°02'1211.6
2017-Jan-11 20:33N 22°26' E 119°50'  
2017-Jan-05 23:33N 01°12' E 103°55'5 4.9
2017-Jan-05 22:33N 01°15' E 103°51'1 0.7
2017-Jan-05 21:31N 01°16' E 103°50'0 0.0
2017-Jan-05 20:32N 01°16' E 103°50'0 0.0
2017-Jan-05 19:17N 01°16' E 103°50'0 0.0
2017-Jan-05 18:29N 01°16' E 103°50'0 0.0
2017-Jan-05 17:29N 01°16' E 103°50'0 0.0
2017-Jan-05 16:29N 01°16' E 103°50'0 0.0
2017-Jan-05 15:29N 01°16' E 103°50'0 0.0
2017-Jan-05 14:29N 01°16' E 103°50'0 0.0
2017-Jan-05 13:29N 01°16' E 103°50'0 0.0
2017-Jan-05 12:29N 01°16' E 103°50'0 0.0
2017-Jan-05 11:32N 01°16' E 103°50'0 0.0
2017-Jan-05 10:29N 01°16' E 103°50'0 0.0
2017-Jan-05 09:29N 01°16' E 103°50'0 0.0
2017-Jan-05 08:28N 01°16' E 103°50'0 0.0
2017-Jan-05 07:28N 01°16' E 103°50'0 0.0
2017-Jan-05 06:25N 01°16' E 103°50'0 0.0
2017-Jan-05 05:28N 01°16' E 103°50'0 0.0
2017-Jan-05 04:28N 01°16' E 103°50'0 0.4
2017-Jan-05 03:33N 01°16' E 103°50'1 1.1
2017-Jan-05 02:33N 01°15' E 103°51'4 4.1
2017-Jan-05 01:27N 01°11' E 103°50'6410.5
2017-Jan-04 19:20N 01°36' E 102°51'2614.8
2017-Jan-04 17:33N 01°47' E 102°27'3014.9
2017-Jan-04 15:33N 02°04' E 102°03'1515.4
2017-Jan-04 14:33N 02°14' E 101°51'  

Dump ship's entire track history